createdAt,value
2018-06-10T00:01:26.490Z,100796.13
2018-06-10T00:03:54.825Z,100799.78
2018-06-10T00:06:23.226Z,100797.34
2018-06-10T00:08:51.631Z,100785.96
2018-06-10T00:11:20.144Z,100781.37
2018-06-10T00:13:48.532Z,100782.98
2018-06-10T00:16:16.929Z,100781.31
2018-06-10T00:18:45.441Z,100776.17
2018-06-10T00:21:13.856Z,100765.76
2018-06-10T00:23:42.227Z,100752.84
2018-06-10T00:26:10.622Z,100747.98
2018-06-10T00:28:44.314Z,100739.23
2018-06-10T00:31:12.695Z,100735.33
2018-06-10T00:33:41.045Z,100731.81
2018-06-10T00:36:09.418Z,100734.75
2018-06-10T00:38:37.839Z,100736.70
2018-06-10T00:41:06.218Z,100736.11
2018-06-10T00:43:34.582Z,100735.23
2018-06-10T00:46:02.988Z,100733.81
2018-06-10T00:48:31.335Z,100731.70
2018-06-10T00:50:59.743Z,100743.20
2018-06-10T00:53:28.147Z,100745.87
2018-06-10T00:55:56.528Z,100744.73
2018-06-10T00:58:24.907Z,100738.84
2018-06-10T01:00:53.356Z,100725.42
2018-06-10T01:03:21.731Z,100727.72
2018-06-10T01:05:50.160Z,100723.41
2018-06-10T01:08:18.611Z,100722.20
2018-06-10T01:10:46.945Z,100725.52
2018-06-10T01:13:15.389Z,100731.94
2018-06-10T01:15:43.781Z,100729.32
2018-06-10T01:18:12.211Z,100732.14
2018-06-10T01:20:40.630Z,100727.66
2018-06-10T01:23:09.039Z,100724.52
2018-06-10T01:25:37.392Z,100725.26
2018-06-10T01:28:05.921Z,100720.81
2018-06-10T01:30:34.268Z,100711.36
2018-06-10T01:33:02.636Z,100708.35
2018-06-10T01:35:30.976Z,100705.22
2018-06-10T01:37:59.356Z,100706.47
2018-06-10T01:40:27.683Z,100703.40
2018-06-10T01:42:56.038Z,100698.02
2018-06-10T01:45:24.402Z,100702.05
2018-06-10T01:47:52.812Z,100690.61
2018-06-10T01:50:21.231Z,100686.27
2018-06-10T01:52:49.661Z,100687.80
2018-06-10T01:55:18.116Z,100682.94
2018-06-10T01:57:46.492Z,100679.52
2018-06-10T02:00:14.909Z,100683.23
2018-06-10T02:02:43.285Z,100674.53
2018-06-10T02:05:11.601Z,100671.72
2018-06-10T02:07:39.915Z,100672.55
2018-06-10T02:10:08.301Z,100673.25
2018-06-10T02:12:36.643Z,100662.20
2018-06-10T02:15:05.052Z,100663.19
2018-06-10T02:17:33.416Z,100668.88
2018-06-10T02:20:01.794Z,100662.04
2018-06-10T02:22:30.311Z,100663.70
2018-06-10T02:24:58.633Z,100669.39
2018-06-10T02:27:26.955Z,100666.52
2018-06-10T02:29:55.349Z,100663.83
2018-06-10T02:32:23.712Z,100664.85
2018-06-10T02:34:52.106Z,100665.45
2018-06-10T02:37:20.470Z,100659.06
2018-06-10T02:39:48.812Z,100654.02
2018-06-10T02:42:17.191Z,100653.50
2018-06-10T02:44:45.580Z,100651.52
2018-06-10T02:47:13.975Z,100653.38
2018-06-10T02:49:42.407Z,100652.03
2018-06-10T02:52:10.785Z,100648.01
2018-06-10T02:54:39.144Z,100646.98
2018-06-10T02:57:07.511Z,100651.02
2018-06-10T02:59:35.909Z,100648.33
2018-06-10T03:02:04.408Z,100656.64
2018-06-10T03:04:32.702Z,100660.16
2018-06-10T03:07:01.051Z,100663.22
2018-06-10T03:09:29.400Z,100655.97
2018-06-10T03:11:57.712Z,100658.91
2018-06-10T03:14:26.100Z,100659.36
2018-06-10T03:16:54.576Z,100656.67
2018-06-10T03:19:22.939Z,100656.92
2018-06-10T03:21:51.277Z,100649.20
2018-06-10T03:24:19.629Z,100656.73
2018-06-10T03:26:47.963Z,100655.59
2018-06-10T03:29:16.405Z,100644.59
2018-06-10T03:31:44.817Z,100641.30
2018-06-10T03:34:13.171Z,100644.17
2018-06-10T03:36:41.569Z,100644.94
2018-06-10T03:39:09.884Z,100647.36
2018-06-10T03:41:38.253Z,100661.80
2018-06-10T03:44:06.696Z,100664.16
2018-06-10T03:46:35.107Z,100658.98
2018-06-10T03:49:03.509Z,100665.59
2018-06-10T03:51:31.863Z,100665.00
2018-06-10T03:54:00.229Z,100668.19
2018-06-10T03:56:28.548Z,100666.84
2018-06-10T03:58:56.914Z,100666.98
2018-06-10T04:01:25.399Z,100666.09
2018-06-10T04:03:53.739Z,100661.16
2018-06-10T04:06:22.100Z,100660.00
2018-06-10T04:08:50.451Z,100651.83
2018-06-10T04:11:18.784Z,100656.53
2018-06-10T04:13:47.148Z,100656.66
2018-06-10T04:16:15.499Z,100657.17
2018-06-10T04:18:43.808Z,100666.98
2018-06-10T04:21:12.165Z,100669.98
2018-06-10T04:23:41.339Z,100669.56
2018-06-10T04:26:09.717Z,100671.00
2018-06-10T04:28:38.123Z,100675.48
2018-06-10T04:31:06.518Z,100671.64
2018-06-10T04:33:34.934Z,100675.30
2018-06-10T04:36:03.293Z,100682.52
2018-06-10T04:38:31.603Z,100686.73
2018-06-10T04:40:59.936Z,100688.69
2018-06-10T04:43:28.344Z,100682.81
2018-06-10T04:45:56.717Z,100690.80
2018-06-10T04:48:25.045Z,100700.20
2018-06-10T04:50:53.436Z,100701.86
2018-06-10T04:53:21.794Z,100703.20
2018-06-10T04:55:50.198Z,100701.54
2018-06-10T04:58:18.597Z,100706.20
2018-06-10T05:00:47.003Z,100703.52
2018-06-10T05:03:15.358Z,100708.37
2018-06-10T05:05:43.715Z,100710.36
2018-06-10T05:08:12.057Z,100712.02
2018-06-10T05:10:40.411Z,100709.76
2018-06-10T05:13:08.788Z,100705.63
2018-06-10T05:15:37.199Z,100713.56
2018-06-10T05:18:05.605Z,100712.73
2018-06-10T05:20:33.983Z,100714.58
2018-06-10T05:23:02.304Z,100717.52
2018-06-10T05:25:30.780Z,100713.08
2018-06-10T05:27:59.121Z,100712.70
2018-06-10T05:30:27.501Z,100713.02
2018-06-10T05:32:55.936Z,100713.34
2018-06-10T05:35:24.361Z,100714.36
2018-06-10T05:37:52.740Z,100714.55
2018-06-10T05:40:21.122Z,100718.26
2018-06-10T05:42:49.522Z,100713.08
2018-06-10T05:45:17.923Z,100719.80
2018-06-10T05:47:46.388Z,100723.31
2018-06-10T05:50:14.878Z,100729.32
2018-06-10T05:52:43.272Z,100728.94
2018-06-10T05:55:11.755Z,100726.89
2018-06-10T05:57:40.119Z,100729.20
2018-06-10T06:00:09.301Z,100734.66
2018-06-10T06:02:37.822Z,100736.64
2018-06-10T06:05:06.383Z,100742.72
2018-06-10T06:07:35.512Z,100742.84
2018-06-10T06:10:03.924Z,100742.95
2018-06-10T06:12:32.285Z,100747.42
2018-06-10T06:15:00.685Z,100745.88
2018-06-10T06:17:29.051Z,100744.28
2018-06-10T06:19:57.496Z,100754.33
2018-06-10T06:22:25.884Z,100746.33
2018-06-10T06:24:54.223Z,100750.42
2018-06-10T06:27:22.631Z,100755.48
2018-06-10T06:29:50.935Z,100753.50
2018-06-10T06:32:19.253Z,100751.64
2018-06-10T06:34:47.597Z,100751.38
2018-06-10T06:37:15.930Z,100748.63
2018-06-10T06:39:44.305Z,100751.00
2018-06-10T06:42:12.726Z,100752.73
2018-06-10T06:44:41.147Z,100755.03
2018-06-10T06:47:09.518Z,100757.72
2018-06-10T06:49:37.866Z,100756.63
2018-06-10T06:52:06.429Z,100753.87
2018-06-10T06:54:34.769Z,100755.66
2018-06-10T06:57:03.158Z,100756.10
2018-06-10T06:59:31.543Z,100748.30
2018-06-10T07:01:59.931Z,100745.55
2018-06-10T07:04:28.256Z,100746.27
2018-06-10T07:06:56.645Z,100739.28
2018-06-10T07:09:25.064Z,100740.61
2018-06-10T07:11:53.509Z,100752.15
2018-06-10T07:14:21.975Z,100742.25
2018-06-10T07:16:50.310Z,100747.48
2018-06-10T07:19:18.671Z,100738.82
2018-06-10T07:21:47.001Z,100740.89
2018-06-10T07:24:15.321Z,100738.83
2018-06-10T07:26:43.703Z,100745.12
2018-06-10T07:29:12.104Z,100744.48
2018-06-10T07:31:40.415Z,100733.22
2018-06-10T07:34:08.750Z,100740.89
2018-06-10T07:36:37.091Z,100730.84
2018-06-10T07:39:07.891Z,100736.54
2018-06-10T07:41:36.530Z,100746.27
2018-06-10T07:44:04.952Z,100750.94
2018-06-10T07:46:33.323Z,100753.11
2018-06-10T07:49:01.668Z,100756.75
2018-06-10T07:51:30.089Z,100765.02
2018-06-10T07:53:58.452Z,100769.88
2018-06-10T07:56:26.811Z,100765.02
2018-06-10T07:58:55.215Z,100763.35
2018-06-10T08:01:23.536Z,100766.75
2018-06-10T08:03:51.894Z,100769.31
2018-06-10T08:06:20.210Z,100767.25
2018-06-10T08:08:48.806Z,100763.73
2018-06-10T08:11:17.135Z,100762.89
2018-06-10T08:13:45.461Z,100759.18
2018-06-10T08:16:13.955Z,100756.49
2018-06-10T08:18:42.464Z,100757.86
2018-06-10T08:21:10.815Z,100761.48
2018-06-10T08:23:39.340Z,100761.58
2018-06-10T08:26:07.703Z,100757.34
2018-06-10T08:28:36.214Z,100758.30
2018-06-10T08:31:04.605Z,100761.04
2018-06-10T08:33:33.121Z,100767.66
2018-06-10T08:36:01.490Z,100760.10
2018-06-10T08:38:29.824Z,100753.38
2018-06-10T08:40:58.232Z,100756.63
2018-06-10T08:43:26.551Z,100757.90
2018-06-10T08:45:54.952Z,100753.16
2018-06-10T08:48:23.282Z,100753.47
2018-06-10T08:50:51.591Z,100756.47
2018-06-10T08:53:19.899Z,100760.80
2018-06-10T08:55:48.275Z,100760.72
2018-06-10T08:58:16.702Z,100766.22
2018-06-10T09:00:45.180Z,100761.91
2018-06-10T09:03:13.572Z,100757.59
2018-06-10T09:05:42.014Z,100759.88
2018-06-10T09:08:10.392Z,100766.92
2018-06-10T09:10:38.770Z,100761.55
2018-06-10T09:13:07.231Z,100767.80
2018-06-10T09:15:35.642Z,100771.72
2018-06-10T09:18:03.987Z,100770.25
2018-06-10T09:20:32.320Z,100770.25
2018-06-10T09:23:00.667Z,100772.66
2018-06-10T09:25:29.034Z,100769.34
2018-06-10T09:27:57.427Z,100774.01
2018-06-10T09:30:25.779Z,100768.70
2018-06-10T09:32:54.127Z,100770.65
2018-06-10T09:35:22.534Z,100773.66
2018-06-10T09:37:50.875Z,100766.41
2018-06-10T09:40:19.319Z,100774.92
2018-06-10T09:42:47.726Z,100775.13
2018-06-10T09:45:16.074Z,100765.30
2018-06-10T09:47:44.568Z,100761.59
2018-06-10T09:50:12.915Z,100758.46
2018-06-10T09:52:41.273Z,100761.35
2018-06-10T09:55:09.621Z,100762.19
2018-06-10T09:57:37.952Z,100770.69
2018-06-10T10:00:06.401Z,100766.97
2018-06-10T10:02:34.748Z,100762.33
2018-06-10T10:05:03.087Z,100765.45
2018-06-10T10:07:31.412Z,100767.83
2018-06-10T10:10:00.344Z,100761.73
2018-06-10T10:12:28.694Z,100764.83
2018-06-10T10:14:57.003Z,100766.80
2018-06-10T10:17:25.363Z,100769.52
2018-06-10T10:19:53.671Z,100762.16
2018-06-10T10:22:21.998Z,100754.22
2018-06-10T10:24:50.315Z,100757.55
2018-06-10T10:27:18.670Z,100760.06
2018-06-10T10:29:47.025Z,100756.95
2018-06-10T10:32:15.355Z,100753.14
2018-06-10T10:34:44.112Z,100752.29
2018-06-10T10:37:12.479Z,100756.56
2018-06-10T10:39:40.902Z,100754.67
2018-06-10T10:42:09.255Z,100757.34
2018-06-10T10:44:37.621Z,100757.45
2018-06-10T10:47:05.998Z,100763.26
2018-06-10T10:49:34.324Z,100762.43
2018-06-10T10:52:02.741Z,100760.77
2018-06-10T10:54:31.197Z,100759.21
2018-06-10T10:56:59.570Z,100761.59
2018-06-10T10:59:28.811Z,100761.08
2018-06-10T11:01:57.218Z,100759.22
2018-06-10T11:04:25.600Z,100758.08
2018-06-10T11:06:54.000Z,100753.61
2018-06-10T11:09:22.386Z,100758.90
2018-06-10T11:11:50.775Z,100762.56
2018-06-10T11:14:19.105Z,100760.89
2018-06-10T11:16:47.480Z,100762.45
2018-06-10T11:19:15.818Z,100750.92
2018-06-10T11:21:44.184Z,100752.14
2018-06-10T11:24:13.206Z,100752.39
2018-06-10T11:26:41.716Z,100747.64
2018-06-10T11:29:10.045Z,100748.79
2018-06-10T11:31:38.453Z,100748.16
2018-06-10T11:34:06.765Z,100745.86
2018-06-10T11:36:35.179Z,100746.38
2018-06-10T11:39:03.816Z,100747.95
2018-06-10T11:41:32.223Z,100745.13
2018-06-10T11:44:00.628Z,100744.83
2018-06-10T11:46:29.007Z,100751.76
2018-06-10T11:48:57.387Z,100743.59
2018-06-10T11:51:25.817Z,100750.49
2018-06-10T11:53:54.200Z,100746.22
2018-06-10T11:56:22.650Z,100747.15
2018-06-10T11:58:51.041Z,100753.48
2018-06-10T12:01:19.359Z,100751.53
2018-06-10T12:03:48.467Z,100749.33
2018-06-10T12:06:16.821Z,100747.05
2018-06-10T12:08:45.299Z,100750.64
2018-06-10T12:11:13.696Z,100752.81
2018-06-10T12:13:42.132Z,100754.66
2018-06-10T12:16:10.471Z,100749.84
2018-06-10T12:18:38.802Z,100750.62
2018-06-10T12:21:07.232Z,100748.81
2018-06-10T12:23:35.645Z,100746.33
2018-06-10T12:26:04.178Z,100743.57
2018-06-10T12:28:32.572Z,100739.95
2018-06-10T12:31:00.912Z,100739.83
2018-06-10T12:33:29.244Z,100726.48
2018-06-10T12:35:57.621Z,100729.69
2018-06-10T12:38:26.056Z,100730.45
2018-06-10T12:40:54.622Z,100727.64
2018-06-10T12:43:23.000Z,100727.63
2018-06-10T12:45:51.410Z,100729.09
2018-06-10T12:48:19.843Z,100734.02
2018-06-10T12:50:48.218Z,100732.05
2018-06-10T12:53:16.675Z,100726.08
2018-06-10T12:55:45.101Z,100719.41
2018-06-10T12:58:13.461Z,100719.50
2018-06-10T13:00:41.852Z,100709.34
2018-06-10T13:03:10.167Z,100708.63
2018-06-10T13:05:38.528Z,100712.19
2018-06-10T13:08:07.004Z,100708.58
2018-06-10T13:10:35.403Z,100704.48
2018-06-10T13:13:03.891Z,100700.46
2018-06-10T13:15:32.235Z,100696.09
2018-06-10T13:18:00.715Z,100703.01
2018-06-10T13:20:29.188Z,100702.88
2018-06-10T13:22:57.583Z,100702.75
2018-06-10T13:25:25.961Z,100703.58
2018-06-10T13:27:54.503Z,100702.73
2018-06-10T13:30:22.905Z,100689.35
2018-06-10T13:32:51.333Z,100696.25
2018-06-10T13:35:20.288Z,100689.17
2018-06-10T13:37:48.698Z,100690.05
2018-06-10T13:40:17.195Z,100695.00
2018-06-10T13:42:45.633Z,100699.73
2018-06-10T13:45:14.005Z,100698.37
2018-06-10T13:47:42.459Z,100694.70
2018-06-10T13:50:10.813Z,100698.86
2018-06-10T13:52:39.230Z,100696.25
2018-06-10T13:55:07.684Z,100691.99
2018-06-10T13:57:36.185Z,100682.56
2018-06-10T14:00:04.865Z,100691.61
2018-06-10T14:02:33.208Z,100687.30
2018-06-10T14:05:01.563Z,100690.30
2018-06-10T14:07:29.972Z,100693.66
2018-06-10T14:09:58.390Z,100688.39
2018-06-10T14:12:26.794Z,100692.58
2018-06-10T14:14:55.193Z,100682.25
2018-06-10T14:17:23.542Z,100686.87
2018-06-10T14:19:51.919Z,100676.05
2018-06-10T14:22:20.296Z,100682.13
2018-06-10T14:24:48.873Z,100686.16
2018-06-10T14:27:17.308Z,100686.34
2018-06-10T14:29:45.690Z,100681.27
2018-06-10T14:32:14.034Z,100684.43
2018-06-10T14:34:42.443Z,100679.42
2018-06-10T14:37:10.866Z,100670.87
2018-06-10T14:39:39.295Z,100674.81
2018-06-10T14:42:07.651Z,100674.81
2018-06-10T14:44:36.047Z,100668.21
2018-06-10T14:47:04.381Z,100665.84
2018-06-10T14:49:32.795Z,100676.02
2018-06-10T14:52:01.183Z,100672.50
2018-06-10T14:54:29.527Z,100669.26
2018-06-10T14:56:57.971Z,100665.98
2018-06-10T14:59:26.361Z,100668.80
2018-06-10T15:01:54.791Z,100668.89
2018-06-10T15:04:23.121Z,100664.80
2018-06-10T15:06:51.558Z,100666.02
2018-06-10T15:09:19.930Z,100658.64
2018-06-10T15:11:49.191Z,100664.59
2018-06-10T15:14:17.602Z,100658.34
2018-06-10T15:16:45.983Z,100656.57
2018-06-10T15:19:14.335Z,100654.24
2018-06-10T15:21:42.796Z,100648.02
2018-06-10T15:24:11.178Z,100653.55
2018-06-10T15:26:40.104Z,100646.08
2018-06-10T15:29:08.442Z,100638.78
2018-06-10T15:31:36.824Z,100645.93
2018-06-10T15:34:05.239Z,100645.73
2018-06-10T15:36:33.727Z,100642.56
2018-06-10T15:39:02.127Z,100640.70
2018-06-10T15:41:30.491Z,100636.55
2018-06-10T15:43:58.942Z,100635.88
2018-06-10T15:46:27.362Z,100636.48
2018-06-10T15:48:56.792Z,100636.84
2018-06-10T15:51:25.124Z,100637.14
2018-06-10T15:53:54.494Z,100634.66
2018-06-10T15:56:23.149Z,100631.23
2018-06-10T15:58:51.654Z,100628.78
2018-06-10T16:01:20.036Z,100621.94
2018-06-10T16:03:48.412Z,100618.30
2018-06-10T16:06:16.816Z,100617.01
2018-06-10T16:08:45.217Z,100624.16
2018-06-10T16:11:13.626Z,100619.03
2018-06-10T16:13:42.038Z,100618.00
2018-06-10T16:16:10.452Z,100615.98
2018-06-10T16:18:38.833Z,100605.11
2018-06-10T16:21:07.331Z,100607.55
2018-06-10T16:23:35.710Z,100606.23
2018-06-10T16:26:04.115Z,100600.27
2018-06-10T16:28:32.491Z,100606.34
2018-06-10T16:31:00.949Z,100609.33
2018-06-10T16:33:29.575Z,100614.22
2018-06-10T16:35:58.114Z,100623.34
2018-06-10T16:38:26.506Z,100620.67
2018-06-10T16:40:54.924Z,100622.31
2018-06-10T16:43:23.355Z,100621.73
2018-06-10T16:45:51.702Z,100618.98
2018-06-10T16:48:20.143Z,100622.45
2018-06-10T16:50:48.615Z,100619.13
2018-06-10T16:53:16.979Z,100615.31
2018-06-10T16:55:45.303Z,100618.59
2018-06-10T16:58:13.697Z,100620.98
2018-06-10T17:00:42.069Z,100620.81
2018-06-10T17:03:10.392Z,100623.00
2018-06-10T17:05:38.771Z,100627.26
2018-06-10T17:08:07.172Z,100631.98
2018-06-10T17:10:35.574Z,100628.73
2018-06-10T17:13:04.027Z,100630.22
2018-06-10T17:15:32.427Z,100635.31
2018-06-10T17:18:00.759Z,100645.59
2018-06-10T17:20:29.153Z,100646.31
2018-06-10T17:22:57.457Z,100650.57
2018-06-10T17:25:25.931Z,100642.33
2018-06-10T17:27:54.295Z,100640.28
2018-06-10T17:30:22.683Z,100633.81
2018-06-10T17:32:51.187Z,100631.55
2018-06-10T17:35:19.618Z,100624.61
2018-06-10T17:37:48.647Z,100625.64
2018-06-10T17:40:17.024Z,100631.35
2018-06-10T17:42:45.474Z,100632.53
2018-06-10T17:45:13.876Z,100634.30
2018-06-10T17:47:42.260Z,100637.97
2018-06-10T17:50:10.617Z,100636.12
2018-06-10T17:52:39.029Z,100635.27
2018-06-10T17:55:08.198Z,100629.73
2018-06-10T17:57:36.568Z,100644.42
2018-06-10T18:00:04.947Z,100642.56
2018-06-10T18:02:33.536Z,100645.98
2018-06-10T18:05:01.944Z,100641.16
2018-06-10T18:07:30.432Z,100630.03
2018-06-10T18:09:58.868Z,100626.20
2018-06-10T18:12:27.337Z,100619.87
2018-06-10T18:14:55.807Z,100612.58
2018-06-10T18:17:24.124Z,100616.41
2018-06-10T18:19:52.486Z,100618.17
2018-06-10T18:22:20.879Z,100614.97
2018-06-10T18:24:49.315Z,100629.63
2018-06-10T18:27:17.622Z,100626.27
2018-06-10T18:29:45.989Z,100633.54
2018-06-10T18:32:14.289Z,100637.31
2018-06-10T18:34:42.634Z,100637.80
2018-06-10T18:37:11.003Z,100641.63
2018-06-10T18:39:39.471Z,100637.91
2018-06-10T18:42:07.947Z,100642.86
2018-06-10T18:44:36.270Z,100653.53
2018-06-10T18:47:04.617Z,100660.88
2018-06-10T18:49:33.090Z,100654.52
2018-06-10T18:52:02.204Z,100654.80
2018-06-10T18:54:30.683Z,100657.44
2018-06-10T18:56:59.063Z,100665.98
2018-06-10T18:59:27.507Z,100665.30
2018-06-10T19:01:55.966Z,100668.92
2018-06-10T19:04:24.344Z,100677.61
2018-06-10T19:06:53.895Z,100678.56
2018-06-10T19:09:22.347Z,100687.06
2018-06-10T19:11:50.795Z,100687.98
2018-06-10T19:14:19.190Z,100681.06
2018-06-10T19:16:47.669Z,100676.86
2018-06-10T19:19:16.027Z,100674.59
2018-06-10T19:21:44.370Z,100680.66
2018-06-10T19:24:12.836Z,100681.86
2018-06-10T19:26:41.184Z,100684.60
2018-06-10T19:29:09.607Z,100693.57
2018-06-10T19:31:38.002Z,100694.77
2018-06-10T19:34:06.518Z,100698.95
2018-06-10T19:36:34.903Z,100695.75
2018-06-10T19:39:03.738Z,100701.31
2018-06-10T19:41:32.344Z,100701.43
2018-06-10T19:44:00.759Z,100697.50
2018-06-10T19:46:29.186Z,100699.77
2018-06-10T19:48:57.563Z,100700.75
2018-06-10T19:51:25.987Z,100705.23
2018-06-10T19:53:55.199Z,100718.31
2018-06-10T19:56:23.875Z,100713.56
2018-06-10T19:58:52.463Z,100721.80
2018-06-10T20:01:20.905Z,100722.95
2018-06-10T20:03:50.009Z,100719.02
2018-06-10T20:06:18.987Z,100716.98
2018-06-10T20:08:47.443Z,100725.72
2018-06-10T20:11:15.786Z,100726.14
2018-06-10T20:13:44.166Z,100732.16
2018-06-10T20:16:12.542Z,100730.81
2018-06-10T20:18:42.144Z,100731.02
2018-06-10T20:21:10.640Z,100729.09
2018-06-10T20:23:39.111Z,100728.47
2018-06-10T20:26:07.527Z,100729.20
2018-06-10T20:28:35.838Z,100735.84
2018-06-10T20:31:04.222Z,100738.44
2018-06-10T20:33:32.662Z,100732.05
2018-06-10T20:36:01.015Z,100731.63
2018-06-10T20:38:29.405Z,100730.67
2018-06-10T20:40:57.750Z,100736.48
2018-06-10T20:43:26.179Z,100735.75
2018-06-10T20:45:54.580Z,100737.75
2018-06-10T20:48:22.992Z,100736.51
2018-06-10T20:50:51.353Z,100734.54
2018-06-10T20:53:19.659Z,100732.57
2018-06-10T20:55:48.003Z,100734.88
2018-06-10T20:58:16.315Z,100741.31
2018-06-10T21:00:44.774Z,100745.97
2018-06-10T21:03:13.136Z,100744.31
2018-06-10T21:05:41.532Z,100743.69
2018-06-10T21:08:09.914Z,100745.55
2018-06-10T21:10:38.253Z,100743.78
2018-06-10T21:13:06.688Z,100741.81
2018-06-10T21:15:35.357Z,100742.25
2018-06-10T21:18:03.728Z,100746.30
2018-06-10T21:20:32.068Z,100739.43
2018-06-10T21:23:00.402Z,100738.39
2018-06-10T21:25:28.760Z,100738.70
2018-06-10T21:27:57.191Z,100738.52
2018-06-10T21:30:25.611Z,100738.94
2018-06-10T21:32:53.936Z,100738.31
2018-06-10T21:35:22.352Z,100738.31
2018-06-10T21:37:50.695Z,100746.49
2018-06-10T21:40:19.049Z,100741.20
2018-06-10T21:42:47.435Z,100738.63
2018-06-10T21:45:15.919Z,100737.60
2018-06-10T21:47:44.349Z,100742.98
2018-06-10T21:50:12.684Z,100739.67
2018-06-10T21:52:41.053Z,100747.12
2018-06-10T21:55:10.139Z,100745.98
2018-06-10T21:57:38.522Z,100752.41
2018-06-10T22:00:10.967Z,100747.03
2018-06-10T22:02:39.296Z,100763.47
2018-06-10T22:05:07.656Z,100766.05
2018-06-10T22:07:36.135Z,100768.95
2018-06-10T22:10:04.555Z,100760.45
2018-06-10T22:12:32.911Z,100757.95
2018-06-10T22:15:01.225Z,100769.25
2018-06-10T22:17:29.563Z,100772.03
2018-06-10T22:19:57.985Z,100779.91
2018-06-10T22:22:26.363Z,100783.12
2018-06-10T22:24:54.819Z,100787.16
2018-06-10T22:27:23.207Z,100780.63
2018-06-10T22:29:51.534Z,100784.87
2018-06-10T22:32:19.853Z,100790.05
2018-06-10T22:34:48.250Z,100794.49
2018-06-10T22:37:16.592Z,100794.06
2018-06-10T22:39:44.961Z,100795.61
2018-06-10T22:42:13.333Z,100789.59
2018-06-10T22:44:41.667Z,100792.20
2018-06-10T22:47:10.031Z,100797.98
2018-06-10T22:49:38.422Z,100794.98
2018-06-10T22:52:06.826Z,100792.69
2018-06-10T22:54:44.815Z,100788.33
2018-06-10T22:57:13.186Z,100790.28
2018-06-10T22:59:41.562Z,100792.25
2018-06-10T23:02:10.595Z,100788.09
2018-06-10T23:04:38.945Z,100790.67
2018-06-10T23:07:07.286Z,100783.11
2018-06-10T23:09:35.642Z,100780.11
2018-06-10T23:12:04.097Z,100781.65
2018-06-10T23:14:32.460Z,100787.66
2018-06-10T23:17:00.815Z,100783.51
2018-06-10T23:19:29.145Z,100786.40
2018-06-10T23:21:57.483Z,100793.55
2018-06-10T23:24:25.888Z,100793.23
2018-06-10T23:26:54.288Z,100792.29
2018-06-10T23:29:22.656Z,100798.78
2018-06-10T23:31:51.004Z,100798.78
2018-06-10T23:34:19.353Z,100799.80
2018-06-10T23:36:47.702Z,100807.56
2018-06-10T23:39:16.104Z,100799.05
2018-06-10T23:41:44.482Z,100801.73
2018-06-10T23:44:12.856Z,100792.20
2018-06-10T23:46:41.184Z,100798.69
2018-06-10T23:49:09.571Z,100797.03
2018-06-10T23:51:37.898Z,100802.48
2018-06-10T23:54:06.261Z,100801.88
2018-06-10T23:56:35.197Z,100805.27
2018-06-10T23:59:03.582Z,100799.27
